Time;durP1;ratioP1;P1;durP2;ratioP2;P2;SDS_P1;SDS_P2;PMS_P1;PMS_P2;Temp;Humidity;BMP_temperature;BMP_pressure;BME280_temperature;BME280_humidity;BME280_pressure;Samples;Min_cycle;Max_cycle;Signal;HPM_P1;HPM_P2
2023/11/24 00:00:05;;;;;;;;;3.00;3.00;;;;;;;;5068037;28;8859;-78
2023/11/24 00:02:33;;;;;;;;;2.75;1.75;;;;;;;;5068639;28;8801;-80
2023/11/24 00:05:01;;;;;;;;;4.50;3.00;;;;;;;;5068160;28;8848;-79
2023/11/24 00:07:29;;;;;;;;;6.00;3.75;;;;;;;;5068274;28;8860;-79
2023/11/24 00:09:57;;;;;;;;;5.25;3.75;;;;;;;;5069024;28;8922;-78
2023/11/24 00:12:25;;;;;;;;;4.00;3.00;;;;;;;;5070619;28;8848;-79
2023/11/24 00:14:52;;;;;;;;;3.00;3.00;;;;;;;;5071137;28;9631;-79
2023/11/24 00:17:19;;;;;;;;;2.00;2.00;;;;;;;;5072394;28;8861;-79
2023/11/24 00:19:48;;;;;;;;;3.75;2.50;;;;;;;;5068402;28;8865;-79
2023/11/24 00:22:17;;;;;;;;;2.25;2.25;;;;;;;;5072321;28;8873;-78
2023/11/24 00:24:45;;;;;;;;;3.00;3.00;;;;;;;;5072814;28;8849;-79
2023/11/24 00:27:12;;;;;;;;;4.50;2.50;;;;;;;;5073753;28;8883;-79
2023/11/24 00:29:41;;;;;;;;;3.00;3.00;;;;;;;;5069115;28;8859;-78
2023/11/24 00:32:08;;;;;;;;;4.00;4.00;;;;;;;;5068428;28;8797;-78
2023/11/24 00:34:38;;;;;;;;;4.25;3.00;;;;;;;;5067495;28;8850;-79
2023/11/24 00:37:06;;;;;;;;;5.00;3.00;;;;;;;;5070618;28;8933;-79
2023/11/24 00:39:35;;;;;;;;;4.50;3.00;;;;;;;;5069449;28;8937;-80
2023/11/24 00:42:02;;;;;;;;;4.50;4.00;;;;;;;;5068210;28;8999;-79
2023/11/24 00:44:30;;;;;;;;;4.25;4.00;;;;;;;;5067466;28;8971;-79
2023/11/24 00:46:57;;;;;;;;;4.75;3.50;;;;;;;;5067797;28;8992;-80
2023/11/24 00:49:24;;;;;;;;;3.75;3.75;;;;;;;;5067192;28;8876;-79
2023/11/24 00:51:51;;;;;;;;;1.00;1.00;;;;;;;;5067781;28;8875;-79
2023/11/24 00:54:19;;;;;;;;;4.00;3.00;;;;;;;;5068125;28;8865;-79
2023/11/24 00:56:48;;;;;;;;;3.75;3.25;;;;;;;;5070520;28;8890;-79
2023/11/24 00:59:16;;;;;;;;;4.25;3.00;;;;;;;;5070914;28;8983;-80
2023/11/24 01:01:43;;;;;;;;;2.00;2.00;;;;;;;;5071251;28;8773;-79
2023/11/24 01:04:10;;;;;;;;;3.00;3.00;;;;;;;;5069395;28;8978;-79
2023/11/24 01:06:38;;;;;;;;;5.00;3.00;;;;;;;;5070799;28;8886;-80
2023/11/24 01:09:05;;;;;;;;;2.00;2.00;;;;;;;;5080699;28;8879;-79
2023/11/24 01:11:33;;;;;;;;;3.00;1.25;;;;;;;;5071065;28;8962;-80
2023/11/24 01:14:05;;;;;;;;;3.75;3.00;;;;;;;;5070827;28;8841;-80
2023/11/24 01:16:32;;;;;;;;;2.50;2.50;;;;;;;;5070612;28;8825;-79
2023/11/24 01:19:00;;;;;;;;;2.00;2.00;;;;;;;;5070607;28;8867;-80
2023/11/24 01:21:27;;;;;;;;;3.00;3.00;;;;;;;;5070409;28;8845;-79
2023/11/24 01:23:59;;;;;;;;;2.25;2.00;;;;;;;;5071611;28;8848;-80
2023/11/24 01:26:26;;;;;;;;;2.75;2.75;;;;;;;;5070921;28;8874;-80
2023/11/24 01:28:54;;;;;;;;;2.50;2.00;;;;;;;;5071948;28;8852;-79
2023/11/24 01:31:22;;;;;;;;;2.00;2.00;;;;;;;;5070961;28;8789;-79
2023/11/24 01:33:50;;;;;;;;;2.50;2.25;;;;;;;;5063122;28;8974;-79
2023/11/24 01:36:17;;;;;;;;;1.00;1.00;;;;;;;;5066725;28;8895;-79
2023/11/24 01:38:44;;;;;;;;;4.00;3.00;;;;;;;;5069866;28;8832;-79
2023/11/24 01:41:11;;;;;;;;;3.00;3.00;;;;;;;;5069923;28;8975;-80
2023/11/24 01:43:39;;;;;;;;;3.00;3.00;;;;;;;;5069495;28;8953;-80
2023/11/24 01:46:06;;;;;;;;;2.00;2.00;;;;;;;;5070012;28;8840;-79
2023/11/24 01:48:35;;;;;;;;;3.75;2.00;;;;;;;;5070436;28;8852;-79
2023/11/24 01:51:02;;;;;;;;;5.50;2.75;;;;;;;;5068941;28;8860;-80
2023/11/24 01:53:30;;;;;;;;;2.25;2.25;;;;;;;;5070614;28;8856;-80
2023/11/24 01:55:57;;;;;;;;;3.75;2.75;;;;;;;;5069742;28;8878;-80
2023/11/24 01:58:29;;;;;;;;;3.25;1.75;;;;;;;;5070916;28;8872;-79
2023/11/24 02:00:56;;;;;;;;;3.00;2.00;;;;;;;;5070821;28;8791;-78
2023/11/24 02:03:24;;;;;;;;;3.00;3.00;;;;;;;;5073274;28;8931;-79
2023/11/24 02:05:53;;;;;;;;;2.75;2.75;;;;;;;;5073685;28;8852;-79
2023/11/24 02:08:21;;;;;;;;;2.00;2.00;;;;;;;;5069581;28;8862;-80
2023/11/24 02:10:48;;;;;;;;;2.25;2.25;;;;;;;;5067256;28;8866;-80
2023/11/24 02:13:15;;;;;;;;;2.00;2.00;;;;;;;;5063548;28;8861;-79
2023/11/24 02:15:43;;;;;;;;;4.00;2.50;;;;;;;;5064792;28;8881;-79
2023/11/24 02:18:12;;;;;;;;;4.50;2.50;;;;;;;;5071566;28;8849;-80
2023/11/24 02:20:39;;;;;;;;;3.00;1.50;;;;;;;;5068786;28;8985;-79
2023/11/24 02:23:08;;;;;;;;;3.00;3.00;;;;;;;;5061786;28;8875;-80
2023/11/24 02:25:35;;;;;;;;;6.00;2.75;;;;;;;;5062735;28;8853;-80
2023/11/24 02:28:02;;;;;;;;;3.75;2.00;;;;;;;;5071702;28;8967;-78
2023/11/24 02:30:32;;;;;;;;;1.50;1.50;;;;;;;;5070465;28;8806;-80
2023/11/24 02:33:02;;;;;;;;;2.00;2.00;;;;;;;;5069579;28;8880;-79
2023/11/24 02:35:31;;;;;;;;;3.00;1.00;;;;;;;;5068911;28;8933;-80
2023/11/24 02:37:59;;;;;;;;;4.50;3.00;;;;;;;;5068860;28;8848;-80
2023/11/24 02:40:27;;;;;;;;;2.00;2.00;;;;;;;;5068948;28;9005;-80
2023/11/24 02:42:55;;;;;;;;;2.25;2.25;;;;;;;;5058071;28;8860;-80
2023/11/24 02:45:22;;;;;;;;;4.00;2.00;;;;;;;;5068899;28;8994;-80
2023/11/24 02:47:49;;;;;;;;;2.75;2.00;;;;;;;;5069210;28;8879;-80
2023/11/24 02:50:17;;;;;;;;;2.25;2.25;;;;;;;;5068651;28;8852;-80
2023/11/24 02:52:45;;;;;;;;;3.00;3.00;;;;;;;;5056623;28;8964;-79
2023/11/24 02:55:14;;;;;;;;;2.00;2.00;;;;;;;;5068325;28;8852;-79
2023/11/24 02:57:43;;;;;;;;;4.00;2.00;;;;;;;;5068721;28;8876;-80
2023/11/24 03:00:13;;;;;;;;;4.00;2.25;;;;;;;;5067871;28;9024;-79
2023/11/24 03:02:40;;;;;;;;;5.75;4.75;;;;;;;;5069310;28;8868;-79
2023/11/24 03:05:08;;;;;;;;;2.75;2.25;;;;;;;;5068654;28;8848;-79
2023/11/24 03:07:37;;;;;;;;;2.00;2.00;;;;;;;;5069031;28;8852;-79
2023/11/24 03:10:05;;;;;;;;;2.00;2.00;;;;;;;;5068556;28;9700;-79
2023/11/24 03:12:33;;;;;;;;;2.00;2.00;;;;;;;;5068565;28;8841;-79
2023/11/24 03:15:03;;;;;;;;;2.50;2.00;;;;;;;;5068852;28;8961;-79
2023/11/24 03:17:30;;;;;;;;;2.75;1.25;;;;;;;;5068745;28;8872;-79
2023/11/24 03:19:57;;;;;;;;;3.00;1.50;;;;;;;;5067756;28;8829;-79
2023/11/24 03:22:24;;;;;;;;;4.75;3.00;;;;;;;;5070282;28;8983;-79
2023/11/24 03:24:51;;;;;;;;;2.75;2.75;;;;;;;;5068196;28;8861;-80
2023/11/24 03:27:19;;;;;;;;;2.00;2.00;;;;;;;;5068762;28;8848;-79
2023/11/24 03:29:46;;;;;;;;;2.50;2.50;;;;;;;;5068434;28;8906;-79
2023/11/24 03:32:15;;;;;;;;;2.25;2.25;;;;;;;;5068063;28;8805;-79
2023/11/24 03:34:42;;;;;;;;;2.00;2.00;;;;;;;;5067520;28;9089;-79
2023/11/24 03:37:09;;;;;;;;;4.25;3.50;;;;;;;;5068723;28;8860;-80
2023/11/24 03:39:37;;;;;;;;;3.75;2.00;;;;;;;;5068837;28;8849;-79
2023/11/24 03:42:04;;;;;;;;;4.00;2.50;;;;;;;;5068656;28;8852;-79
2023/11/24 03:44:32;;;;;;;;;1.75;1.75;;;;;;;;5067572;28;8999;-79
2023/11/24 03:46:59;;;;;;;;;4.50;2.75;;;;;;;;5068214;28;8828;-79
2023/11/24 03:49:28;;;;;;;;;3.00;3.00;;;;;;;;5068302;28;8852;-79
2023/11/24 03:51:55;;;;;;;;;3.00;3.00;;;;;;;;5082180;28;9651;-79
2023/11/24 03:54:22;;;;;;;;;2.00;2.00;;;;;;;;5072280;28;8861;-79
2023/11/24 03:56:50;;;;;;;;;2.75;2.75;;;;;;;;5072179;28;8946;-79
2023/11/24 03:59:18;;;;;;;;;3.00;3.00;;;;;;;;5067093;28;9030;-79
2023/11/24 04:01:45;;;;;;;;;2.00;2.00;;;;;;;;5067170;28;8850;-78
2023/11/24 04:04:12;;;;;;;;;2.50;2.25;;;;;;;;5073495;28;8955;-79
2023/11/24 04:06:41;;;;;;;;;5.75;3.75;;;;;;;;5072751;28;8871;-78
2023/11/24 04:09:09;;;;;;;;;3.75;2.00;;;;;;;;5071603;28;8907;-79
2023/11/24 04:11:36;;;;;;;;;2.25;2.25;;;;;;;;5068458;28;8955;-80
2023/11/24 04:14:05;;;;;;;;;1.00;1.00;;;;;;;;5069150;28;8860;-79
2023/11/24 04:16:33;;;;;;;;;3.00;3.00;;;;;;;;5070098;28;9595;-80
2023/11/24 04:19:00;;;;;;;;;2.25;2.00;;;;;;;;5070652;28;8879;-80
2023/11/24 04:21:27;;;;;;;;;3.25;2.00;;;;;;;;5068577;28;8832;-80
2023/11/24 04:23:56;;;;;;;;;1.00;1.00;;;;;;;;5067618;28;8986;-80
2023/11/24 04:26:23;;;;;;;;;1.00;1.00;;;;;;;;5065328;28;8829;-80
2023/11/24 04:28:51;;;;;;;;;2.00;2.00;;;;;;;;5067906;28;8860;-80
2023/11/24 04:31:20;;;;;;;;;1.75;1.75;;;;;;;;5069419;28;8874;-80
2023/11/24 04:33:48;;;;;;;;;1.25;1.25;;;;;;;;5071660;28;8975;-80
2023/11/24 04:36:17;;;;;;;;;2.00;2.00;;;;;;;;5071356;28;8970;-80
2023/11/24 04:38:45;;;;;;;;;1.25;1.25;;;;;;;;5071542;28;8856;-80
2023/11/24 04:41:14;;;;;;;;;2.25;0.00;;;;;;;;5070253;28;9262;-80
2023/11/24 04:43:41;;;;;;;;;1.50;1.50;;;;;;;;5070531;28;8832;-80
2023/11/24 04:46:09;;;;;;;;;4.00;2.00;;;;;;;;5070435;28;8825;-80
2023/11/24 04:48:39;;;;;;;;;2.00;2.00;;;;;;;;5069875;28;8862;-78
2023/11/24 04:51:07;;;;;;;;;2.25;1.25;;;;;;;;5070871;28;8860;-78
2023/11/24 04:53:34;;;;;;;;;2.50;1.00;;;;;;;;5070477;28;8841;-80
2023/11/24 04:56:02;;;;;;;;;1.00;1.00;;;;;;;;5058194;28;8836;-79
2023/11/24 04:58:31;;;;;;;;;0.25;0.25;;;;;;;;5070432;28;8861;-79
2023/11/24 05:01:00;;;;;;;;;4.00;1.00;;;;;;;;5072188;28;8809;-80
2023/11/24 05:03:28;;;;;;;;;2.50;1.00;;;;;;;;5075687;28;8875;-80
2023/11/24 05:05:55;;;;;;;;;0.50;0.50;;;;;;;;5070354;28;8979;-80
2023/11/24 05:08:22;;;;;;;;;4.00;1.50;;;;;;;;5070002;28;8817;-80
2023/11/24 05:10:49;;;;;;;;;1.75;1.75;;;;;;;;5070435;28;8848;-80
2023/11/24 05:13:17;;;;;;;;;1.75;0.75;;;;;;;;5070127;28;8849;-79
2023/11/24 05:15:46;;;;;;;;;5.00;2.00;;;;;;;;5070933;28;8994;-79
2023/11/24 05:18:13;;;;;;;;;2.00;1.25;;;;;;;;5070126;28;8969;-79
2023/11/24 05:20:40;;;;;;;;;0.75;0.75;;;;;;;;5070712;28;8846;-79
2023/11/24 05:23:08;;;;;;;;;1.00;1.00;;;;;;;;5069888;28;8848;-80
2023/11/24 05:25:35;;;;;;;;;3.25;1.00;;;;;;;;5070591;28;9734;-79
2023/11/24 05:28:02;;;;;;;;;3.50;1.00;;;;;;;;5066904;28;8853;-81
2023/11/24 05:30:34;;;;;;;;;2.00;1.00;;;;;;;;5070126;28;8777;-80
2023/11/24 05:33:03;;;;;;;;;1.00;1.00;;;;;;;;5069746;28;8939;-80
2023/11/24 05:35:30;;;;;;;;;1.00;1.00;;;;;;;;5070407;28;8844;-80
2023/11/24 05:38:00;;;;;;;;;2.00;2.00;;;;;;;;5071069;28;8845;-80
2023/11/24 05:40:28;;;;;;;;;2.00;2.00;;;;;;;;5073969;28;8875;-80
2023/11/24 05:42:55;;;;;;;;;2.25;2.00;;;;;;;;5072021;28;9097;-80
2023/11/24 05:45:22;;;;;;;;;0.00;0.00;;;;;;;;5076026;28;8852;-80
2023/11/24 05:47:53;;;;;;;;;3.00;1.75;;;;;;;;5075840;28;8864;-80
2023/11/24 05:50:22;;;;;;;;;3.75;1.00;;;;;;;;5076354;28;8913;-80
2023/11/24 05:52:49;;;;;;;;;2.00;2.00;;;;;;;;5076517;28;8841;-81
2023/11/24 05:55:17;;;;;;;;;1.00;1.00;;;;;;;;5075887;28;9139;-80
2023/11/24 05:57:44;;;;;;;;;3.00;1.00;;;;;;;;5058206;28;8947;-80
2023/11/24 06:00:16;;;;;;;;;1.00;1.00;;;;;;;;5065891;28;8986;-80
2023/11/24 06:02:44;;;;;;;;;2.00;2.00;;;;;;;;5071313;28;9005;-76
2023/11/24 06:05:11;;;;;;;;;1.67;1.67;;;;;;;;5071306;28;8964;-85
2023/11/24 06:07:40;;;;;;;;;5.33;2.00;;;;;;;;5072384;28;8997;-80
2023/11/24 06:10:10;;;;;;;;;1.00;1.00;;;;;;;;5070168;28;9085;-84
2023/11/24 06:12:37;;;;;;;;;2.00;1.00;;;;;;;;5070165;28;9037;-82
2023/11/24 06:15:06;;;;;;;;;3.67;0.00;;;;;;;;5069484;28;9029;-80
2023/11/24 06:17:34;;;;;;;;;1.00;1.00;;;;;;;;5069957;28;9050;-84
2023/11/24 06:20:03;;;;;;;;;0.00;0.00;;;;;;;;5069558;28;9063;-83
2023/11/24 06:22:31;;;;;;;;;1.50;0.00;;;;;;;;5069522;28;8951;-82
2023/11/24 06:24:59;;;;;;;;;0.00;0.00;;;;;;;;5068777;28;8841;-86
2023/11/24 06:27:27;;;;;;;;;0.25;0.25;;;;;;;;5069486;28;8878;-79
2023/11/24 06:29:54;;;;;;;;;1.25;1.00;;;;;;;;5068884;28;8848;-84
2023/11/24 06:32:24;;;;;;;;;1.00;1.00;;;;;;;;5069777;28;9630;-81
2023/11/24 06:34:52;;;;;;;;;1.00;1.00;;;;;;;;5066946;28;9044;-79
2023/11/24 06:37:19;;;;;;;;;4.00;0.67;;;;;;;;5067322;28;9088;-80
2023/11/24 06:39:47;;;;;;;;;1.00;1.00;;;;;;;;5068141;28;9258;-81
2023/11/24 06:42:15;;;;;;;;;3.00;1.00;;;;;;;;5068568;28;9983;-83
2023/11/24 06:44:43;;;;;;;;;2.00;2.00;;;;;;;;5069239;28;9268;-83
2023/11/24 06:47:10;;;;;;;;;2.00;2.00;;;;;;;;5069153;28;9264;-84
2023/11/24 06:49:38;;;;;;;;;2.25;2.25;;;;;;;;5070101;28;9168;-80
2023/11/24 06:52:06;;;;;;;;;5.00;2.00;;;;;;;;5068458;28;9526;-81
2023/11/24 06:54:34;;;;;;;;;5.67;2.33;;;;;;;;5068882;28;9483;-80
2023/11/24 06:57:01;;;;;;;;;2.67;2.00;;;;;;;;5068052;28;9310;-79
2023/11/24 06:59:29;;;;;;;;;3.75;3.75;;;;;;;;5068807;28;9300;-78
2023/11/24 07:01:57;;;;;;;;;4.75;4.00;;;;;;;;5067020;28;9403;-77
2023/11/24 07:04:25;;;;;;;;;5.75;4.00;;;;;;;;5067879;28;9547;-83
2023/11/24 07:06:52;;;;;;;;;5.00;4.00;;;;;;;;5067816;28;9464;-79
2023/11/24 07:09:22;;;;;;;;;2.00;2.00;;;;;;;;5068737;28;9460;-82
2023/11/24 07:11:52;;;;;;;;;5.00;4.00;;;;;;;;5069487;28;9414;-80
2023/11/24 07:14:19;;;;;;;;;3.67;3.00;;;;;;;;5069339;28;9399;-77
2023/11/24 07:16:47;;;;;;;;;2.33;2.33;;;;;;;;5068897;28;9299;-81
2023/11/24 07:19:16;;;;;;;;;2.67;2.00;;;;;;;;5068467;28;9281;-80
2023/11/24 07:21:44;;;;;;;;;6.00;2.33;;;;;;;;5068946;28;9394;-84
2023/11/24 07:24:11;;;;;;;;;3.00;1.00;;;;;;;;5068859;28;9552;-80
2023/11/24 07:26:38;;;;;;;;;3.00;3.00;;;;;;;;5069114;28;9342;-78
2023/11/24 07:29:05;;;;;;;;;2.00;2.00;;;;;;;;5069842;28;9400;-79
2023/11/24 07:31:33;;;;;;;;;3.00;3.00;;;;;;;;5071565;28;9356;-76
2023/11/24 07:34:01;;;;;;;;;3.25;3.00;;;;;;;;5072369;28;9487;-78
2023/11/24 07:36:31;;;;;;;;;3.25;3.25;;;;;;;;5061066;28;9600;-76
2023/11/24 07:38:58;;;;;;;;;4.00;2.00;;;;;;;;5065104;28;9477;-77
2023/11/24 07:41:25;;;;;;;;;4.00;3.50;;;;;;;;5072715;28;9479;-79
2023/11/24 07:43:54;;;;;;;;;3.00;3.00;;;;;;;;5068380;28;9468;-77
2023/11/24 07:46:22;;;;;;;;;4.67;1.67;;;;;;;;5069238;28;9396;-77
2023/11/24 07:48:49;;;;;;;;;6.00;3.00;;;;;;;;5068181;28;9317;-78
2023/11/24 07:51:18;;;;;;;;;4.50;3.00;;;;;;;;5070161;28;9461;-78
2023/11/24 07:53:45;;;;;;;;;4.00;2.75;;;;;;;;5071678;28;9448;-76
2023/11/24 07:56:12;;;;;;;;;2.50;2.50;;;;;;;;5070028;28;9617;-76
2023/11/24 07:58:39;;;;;;;;;1.67;1.67;;;;;;;;5063572;28;9432;-77
2023/11/24 08:01:07;;;;;;;;;2.00;2.00;;;;;;;;5066879;28;9279;-77
2023/11/24 08:03:34;;;;;;;;;2.00;2.00;;;;;;;;5063389;28;9337;-79
2023/11/24 08:06:06;;;;;;;;;2.75;2.75;;;;;;;;5066632;28;10363;-76
2023/11/24 08:08:35;;;;;;;;;4.75;2.75;;;;;;;;5067171;28;9663;-78
2023/11/24 08:11:02;;;;;;;;;3.00;3.00;;;;;;;;5066924;28;9517;-78
2023/11/24 08:13:29;;;;;;;;;2.00;2.00;;;;;;;;5067261;28;9389;-77
2023/11/24 08:15:56;;;;;;;;;3.00;3.00;;;;;;;;5068798;28;9260;-77
2023/11/24 08:18:24;;;;;;;;;1.00;1.00;;;;;;;;5066609;28;9401;-78
2023/11/24 08:20:52;;;;;;;;;2.75;2.25;;;;;;;;5067383;28;9391;-76
2023/11/24 08:23:21;;;;;;;;;2.50;1.25;;;;;;;;5067752;28;9545;-78
2023/11/24 08:25:50;;;;;;;;;3.67;1.00;;;;;;;;5067109;28;9338;-78
2023/11/24 08:28:18;;;;;;;;;4.75;2.00;;;;;;;;5063276;28;9210;-77
2023/11/24 08:30:46;;;;;;;;;2.00;2.00;;;;;;;;5066417;28;9473;-79
2023/11/24 08:33:14;;;;;;;;;1.67;1.00;;;;;;;;5067262;28;9641;-80
2023/11/24 08:35:42;;;;;;;;;4.67;1.00;;;;;;;;5066790;28;9303;-77
2023/11/24 08:38:12;;;;;;;;;1.00;1.00;;;;;;;;5067312;28;9374;-77
2023/11/24 08:40:40;;;;;;;;;1.00;1.00;;;;;;;;5067170;28;9238;-80
2023/11/24 08:43:08;;;;;;;;;2.33;1.00;;;;;;;;5066197;28;9243;-79
2023/11/24 08:45:36;;;;;;;;;2.33;1.00;;;;;;;;5066984;28;9278;-80
2023/11/24 08:48:04;;;;;;;;;2.67;1.67;;;;;;;;5067266;28;9289;-77
2023/11/24 08:50:32;;;;;;;;;3.67;1.67;;;;;;;;5067021;28;9364;-80
2023/11/24 08:52:59;;;;;;;;;1.00;1.00;;;;;;;;5066878;28;9258;-80
2023/11/24 08:55:31;;;;;;;;;4.33;1.33;;;;;;;;5066867;28;9423;-79
2023/11/24 08:57:59;;;;;;;;;2.00;1.00;;;;;;;;5067062;28;9122;-78
2023/11/24 09:00:28;;;;;;;;;3.00;1.00;;;;;;;;5066299;28;9237;-80
2023/11/24 09:02:57;;;;;;;;;1.00;1.00;;;;;;;;5067625;28;10106;-78
2023/11/24 09:05:26;;;;;;;;;1.00;1.00;;;;;;;;5067159;28;9336;-83
2023/11/24 09:07:54;;;;;;;;;2.67;1.00;;;;;;;;5067888;28;9207;-77
2023/11/24 09:10:22;;;;;;;;;0.00;0.00;;;;;;;;5066568;28;9943;-77
2023/11/24 09:12:50;;;;;;;;;3.00;1.00;;;;;;;;5067310;28;9093;-78
2023/11/24 09:15:18;;;;;;;;;3.33;2.00;;;;;;;;5069038;28;9278;-79
2023/11/24 09:17:46;;;;;;;;;2.00;0.00;;;;;;;;5073862;28;9171;-76
2023/11/24 09:20:16;;;;;;;;;1.67;1.67;;;;;;;;5074622;28;9020;-77
2023/11/24 09:22:45;;;;;;;;;1.67;0.00;;;;;;;;5059086;28;9746;-80
2023/11/24 09:25:15;;;;;;;;;1.00;1.00;;;;;;;;5067652;28;9094;-78
2023/11/24 09:27:43;;;;;;;;;4.33;2.00;;;;;;;;5066112;28;9089;-80
2023/11/24 09:30:11;;;;;;;;;1.00;1.00;;;;;;;;5063593;28;9116;-80
2023/11/24 09:32:41;;;;;;;;;1.00;1.00;;;;;;;;5072270;28;9104;-78
2023/11/24 09:35:10;;;;;;;;;1.00;1.00;;;;;;;;5070313;28;9251;-78
2023/11/24 09:37:38;;;;;;;;;1.00;1.00;;;;;;;;5071631;28;9057;-81
2023/11/24 09:40:12;;;;;;;;;2.33;1.00;;;;;;;;5069989;28;9313;-82
2023/11/24 09:42:41;;;;;;;;;0.33;0.33;;;;;;;;5072381;28;9092;-78
2023/11/24 09:45:14;;;;;;;;;2.00;2.00;;;;;;;;5070700;28;9206;-79
2023/11/24 09:47:44;;;;;;;;;1.00;1.00;;;;;;;;5069167;28;9249;-77
2023/11/24 09:50:14;;;;;;;;;1.00;1.00;;;;;;;;5069592;28;9328;-77
2023/11/24 09:52:46;;;;;;;;;1.00;1.00;;;;;;;;5069169;28;9248;-77
2023/11/24 09:55:13;;;;;;;;;2.50;1.50;;;;;;;;5069267;28;9333;-78
2023/11/24 09:57:41;;;;;;;;;1.00;1.00;;;;;;;;5069963;28;9412;-78
2023/11/24 10:00:09;;;;;;;;;3.50;2.00;;;;;;;;5068093;28;10240;-76
2023/11/24 10:02:39;;;;;;;;;3.50;3.00;;;;;;;;5069701;28;9471;-79
2023/11/24 10:05:08;;;;;;;;;1.75;1.75;;;;;;;;5068980;28;10293;-76
2023/11/24 10:07:36;;;;;;;;;1.50;1.50;;;;;;;;5069889;28;9539;-80
2023/11/24 10:10:05;;;;;;;;;5.75;4.25;;;;;;;;5068367;28;9543;-78
2023/11/24 10:12:33;;;;;;;;;8.00;6.00;;;;;;;;5069668;28;9856;-79
2023/11/24 10:15:00;;;;;;;;;4.75;4.00;;;;;;;;5069271;28;9954;-78
2023/11/24 10:17:33;;;;;;;;;5.00;5.00;;;;;;;;5069601;28;9629;-77
2023/11/24 10:20:00;;;;;;;;;6.50;6.50;;;;;;;;5068936;28;9786;-79
2023/11/24 10:22:29;;;;;;;;;2.50;2.50;;;;;;;;5069567;28;10059;-78
2023/11/24 10:24:58;;;;;;;;;2.00;2.00;;;;;;;;5069112;28;9689;-80
2023/11/24 10:27:26;;;;;;;;;1.00;1.00;;;;;;;;5069333;28;10505;-81
2023/11/24 10:29:54;;;;;;;;;4.25;2.00;;;;;;;;5068703;28;9737;-77
2023/11/24 10:32:21;;;;;;;;;5.00;1.00;;;;;;;;5068391;28;9348;-79
2023/11/24 10:34:48;;;;;;;;;1.00;1.00;;;;;;;;5068826;28;9472;-80
2023/11/24 10:37:17;;;;;;;;;2.00;0.00;;;;;;;;5068898;28;9340;-80
2023/11/24 10:39:45;;;;;;;;;1.00;1.00;;;;;;;;5069316;28;9495;-80
2023/11/24 10:42:15;;;;;;;;;2.00;1.00;;;;;;;;5068791;28;10040;-78
2023/11/24 10:44:44;;;;;;;;;0.00;0.00;;;;;;;;5057239;28;10335;-80
2023/11/24 10:47:13;;;;;;;;;2.50;1.00;;;;;;;;5068858;28;10246;-80
2023/11/24 10:49:49;;;;;;;;;1.75;0.00;;;;;;;;5058340;28;9648;-80
2023/11/24 10:52:25;;;;;;;;;2.00;1.00;;;;;;;;5069376;28;9378;-78
2023/11/24 10:55:00;;;;;;;;;2.25;1.00;;;;;;;;5069837;28;9529;-77
2023/11/24 10:57:31;;;;;;;;;1.00;1.00;;;;;;;;5068829;28;9614;-77
2023/11/24 10:59:59;;;;;;;;;1.00;1.00;;;;;;;;5069503;28;9624;-76
2023/11/24 11:02:27;;;;;;;;;1.00;1.00;;;;;;;;5069687;28;9459;-76
2023/11/24 11:05:01;;;;;;;;;0.25;0.25;;;;;;;;5070331;28;9575;-76
2023/11/24 11:07:41;;;;;;;;;1.75;1.00;;;;;;;;5073444;28;9398;-78
2023/11/24 11:10:12;;;;;;;;;1.00;1.00;;;;;;;;5058584;28;9434;-77
2023/11/24 11:12:50;;;;;;;;;0.00;0.00;;;;;;;;5070745;28;9482;-81
2023/11/24 11:15:24;;;;;;;;;0.00;0.00;;;;;;;;5065069;28;9425;-76
2023/11/24 11:18:08;;;;;;;;;1.00;1.00;;;;;;;;5065601;28;9476;-75
2023/11/24 11:20:40;;;;;;;;;1.25;1.25;;;;;;;;5066176;28;9550;-80
2023/11/24 11:23:09;;;;;;;;;3.25;1.00;;;;;;;;5069321;28;9537;-78
2023/11/24 11:25:42;;;;;;;;;1.00;1.00;;;;;;;;5072986;28;9560;-89
2023/11/24 11:28:39;;;;;;;;;6.00;3.00;;;;;;;;5074710;28;9572;-78
2023/11/24 11:31:27;;;;;;;;;0.75;0.75;;;;;;;;5071831;28;9478;-78
2023/11/24 11:34:14;;;;;;;;;2.25;1.00;;;;;;;;5074199;28;9495;-76
2023/11/24 11:36:56;;;;;;;;;0.00;0.00;;;;;;;;5066083;28;9581;-79
2023/11/24 11:39:27;;;;;;;;;3.75;2.25;;;;;;;;5064458;28;9402;-78
2023/11/24 11:41:58;;;;;;;;;4.50;2.75;;;;;;;;5067544;28;9528;-79
2023/11/24 11:44:33;;;;;;;;;4.00;1.00;;;;;;;;5066685;28;9407;-77
2023/11/24 11:47:20;;;;;;;;;5.00;3.50;;;;;;;;5067372;28;9325;-78
2023/11/24 11:49:56;;;;;;;;;12.50;9.00;;;;;;;;5068403;28;9484;-77
2023/11/24 11:52:25;;;;;;;;;1.33;0.00;;;;;;;;5067142;28;9615;-77
2023/11/24 11:54:55;;;;;;;;;3.33;2.33;;;;;;;;5067621;28;9323;-77
2023/11/24 11:57:23;;;;;;;;;0.33;0.00;;;;;;;;5067549;28;9445;-76
2023/11/24 11:59:52;;;;;;;;;0.00;0.00;;;;;;;;5068049;28;9245;-76
2023/11/24 12:02:22;;;;;;;;;3.00;1.00;;;;;;;;5066800;28;9212;-79
2023/11/24 12:04:50;;;;;;;;;0.33;0.33;;;;;;;;5079932;28;9329;-78
2023/11/24 12:07:19;;;;;;;;;0.67;0.33;;;;;;;;5067633;28;9307;-78
2023/11/24 12:09:47;;;;;;;;;0.00;0.00;;;;;;;;5068230;28;9402;-78
2023/11/24 12:12:14;;;;;;;;;0.00;0.00;;;;;;;;5067796;28;9307;-77
2023/11/24 12:14:48;;;;;;;;;3.33;0.33;;;;;;;;5068035;28;9327;-77
2023/11/24 12:17:17;;;;;;;;;0.00;0.00;;;;;;;;5068572;28;9519;-76
2023/11/24 12:19:44;;;;;;;;;0.00;0.00;;;;;;;;5067472;28;9488;-78
2023/11/24 12:22:11;;;;;;;;;0.00;0.00;;;;;;;;5067816;28;9333;-80
2023/11/24 12:24:39;;;;;;;;;1.00;1.00;;;;;;;;5067487;28;9571;-80
2023/11/24 12:27:07;;;;;;;;;0.00;0.00;;;;;;;;5067730;28;9458;-81
2023/11/24 12:29:34;;;;;;;;;0.50;0.25;;;;;;;;5067129;28;9534;-81
2023/11/24 12:32:05;;;;;;;;;1.00;1.00;;;;;;;;5066650;28;9500;-82
2023/11/24 12:34:41;;;;;;;;;1.00;1.00;;;;;;;;5067416;28;9687;-80
2023/11/24 12:37:09;;;;;;;;;1.00;1.00;;;;;;;;5067499;28;9478;-79
2023/11/24 12:39:36;;;;;;;;;0.25;0.25;;;;;;;;5067271;28;9626;-83
2023/11/24 12:42:05;;;;;;;;;1.25;1.25;;;;;;;;5067133;28;9612;-80
2023/11/24 12:44:36;;;;;;;;;0.00;0.00;;;;;;;;5067683;28;9709;-78
2023/11/24 12:47:14;;;;;;;;;0.00;0.00;;;;;;;;5068308;28;10458;-80
2023/11/24 12:50:02;;;;;;;;;3.00;2.00;;;;;;;;5059150;28;9698;-80
2023/11/24 12:52:30;;;;;;;;;0.50;0.50;;;;;;;;5075356;28;9904;-81
2023/11/24 12:54:59;;;;;;;;;2.00;0.25;;;;;;;;5068810;28;9770;-82
2023/11/24 12:57:28;;;;;;;;;1.25;1.00;;;;;;;;5076403;28;9772;-79
2023/11/24 12:59:56;;;;;;;;;4.00;1.00;;;;;;;;5072139;28;9691;-80
2023/11/24 13:02:24;;;;;;;;;0.00;0.00;;;;;;;;5067245;28;9662;-80
2023/11/24 13:04:52;;;;;;;;;2.00;1.00;;;;;;;;5076322;28;9689;-79
2023/11/24 13:07:21;;;;;;;;;1.75;1.75;;;;;;;;5076341;28;9843;-82
2023/11/24 13:09:56;;;;;;;;;0.00;0.00;;;;;;;;5071575;28;9801;-80
2023/11/24 13:12:26;;;;;;;;;1.00;1.00;;;;;;;;5063370;28;9678;-80
2023/11/24 13:14:54;;;;;;;;;0.00;0.00;;;;;;;;5074315;28;9687;-81
2023/11/24 13:17:22;;;;;;;;;0.00;0.00;;;;;;;;5072185;28;9571;-82
2023/11/24 13:19:52;;;;;;;;;0.00;0.00;;;;;;;;5070555;28;9603;-79
2023/11/24 13:22:24;;;;;;;;;0.00;0.00;;;;;;;;5070459;28;9562;-79
2023/11/24 13:24:54;;;;;;;;;0.00;0.00;;;;;;;;5070147;28;9652;-77
2023/11/24 13:27:28;;;;;;;;;0.00;0.00;;;;;;;;5070862;28;9623;-79
2023/11/24 13:29:56;;;;;;;;;0.00;0.00;;;;;;;;5069314;28;9810;-78
2023/11/24 13:32:23;;;;;;;;;0.00;0.00;;;;;;;;5067898;28;9541;-79
2023/11/24 13:34:51;;;;;;;;;0.75;0.75;;;;;;;;5070033;28;9595;-78
2023/11/24 13:37:18;;;;;;;;;0.00;0.00;;;;;;;;5070440;28;9942;-78
2023/11/24 13:39:47;;;;;;;;;0.00;0.00;;;;;;;;5070136;28;9625;-78
2023/11/24 13:42:17;;;;;;;;;1.00;1.00;;;;;;;;5068419;28;9738;-80
2023/11/24 13:44:45;;;;;;;;;0.00;0.00;;;;;;;;5069867;28;9672;-79
2023/11/24 13:47:12;;;;;;;;;1.00;0.00;;;;;;;;5067710;28;9751;-79
2023/11/24 13:49:40;;;;;;;;;1.00;0.25;;;;;;;;5070635;28;9630;-80
2023/11/24 13:52:07;;;;;;;;;0.00;0.00;;;;;;;;5069587;28;9635;-80
2023/11/24 13:54:35;;;;;;;;;1.50;1.50;;;;;;;;5070240;28;9532;-79
2023/11/24 13:57:05;;;;;;;;;1.00;1.00;;;;;;;;5070145;28;9710;-79
2023/11/24 13:59:33;;;;;;;;;1.50;1.00;;;;;;;;5070831;28;9790;-79
2023/11/24 14:02:00;;;;;;;;;2.75;1.75;;;;;;;;5069113;28;9710;-79
2023/11/24 14:04:32;;;;;;;;;1.00;1.00;;;;;;;;5071063;28;9837;-80
2023/11/24 14:06:59;;;;;;;;;11.75;7.25;;;;;;;;5070143;28;9738;-79
2023/11/24 14:09:31;;;;;;;;;19.25;19.25;;;;;;;;5069469;28;10119;-80
2023/11/24 14:11:59;;;;;;;;;0.00;0.00;;;;;;;;5069079;28;10546;-80
2023/11/24 14:14:28;;;;;;;;;7.50;7.50;;;;;;;;5069576;28;9696;-79
2023/11/24 14:16:58;;;;;;;;;1.75;1.00;;;;;;;;5068685;28;10017;-78
2023/11/24 14:19:28;;;;;;;;;0.75;0.75;;;;;;;;5069570;28;9922;-79
2023/11/24 14:21:59;;;;;;;;;0.00;0.00;;;;;;;;5069150;28;9768;-79
2023/11/24 14:24:27;;;;;;;;;0.00;0.00;;;;;;;;5069846;28;9623;-79
2023/11/24 14:26:54;;;;;;;;;2.00;1.00;;;;;;;;5057835;28;9774;-79
2023/11/24 14:29:23;;;;;;;;;8.50;5.75;;;;;;;;5069406;28;10779;-78
2023/11/24 14:31:54;;;;;;;;;1.00;1.00;;;;;;;;5069047;28;10268;-79
2023/11/24 14:34:21;;;;;;;;;3.25;3.25;;;;;;;;5070616;28;9903;-79
2023/11/24 14:36:49;;;;;;;;;3.00;3.00;;;;;;;;5071804;28;10109;-79
2023/11/24 14:39:25;;;;;;;;;2.75;2.75;;;;;;;;5072740;28;10080;-78
2023/11/24 14:41:54;;;;;;;;;5.75;5.75;;;;;;;;5073808;28;10096;-78
2023/11/24 14:44:21;;;;;;;;;5.50;5.50;;;;;;;;5071482;28;10235;-80
2023/11/24 14:46:50;;;;;;;;;1.00;1.00;;;;;;;;5066698;28;10354;-78
2023/11/24 14:49:19;;;;;;;;;2.00;2.00;;;;;;;;5058656;28;10074;-78
2023/11/24 14:51:47;;;;;;;;;0.50;0.00;;;;;;;;5056504;28;10298;-78
2023/11/24 14:54:15;;;;;;;;;0.75;0.00;;;;;;;;5070663;28;10019;-78
2023/11/24 14:56:45;;;;;;;;;2.00;1.00;;;;;;;;5069748;28;10049;-79
2023/11/24 14:59:12;;;;;;;;;0.00;0.00;;;;;;;;5058535;28;10242;-79
2023/11/24 15:01:42;;;;;;;;;0.00;0.00;;;;;;;;5070927;28;10152;-79
2023/11/24 15:04:13;;;;;;;;;0.00;0.00;;;;;;;;5071173;28;10311;-78